sensor_id;sensor_type;location;lat;lon;timestamp;P1;durP1;ratioP1;P2;durP2;ratioP2
74415;SDS011;62850;42.428;25.618;2022-12-18T00:02:11;8.27;;;3.70;;
74415;SDS011;62850;42.428;25.618;2022-12-18T00:04:37;8.85;;;3.72;;
74415;SDS011;62850;42.428;25.618;2022-12-18T00:07:02;7.85;;;3.97;;
74415;SDS011;62850;42.428;25.618;2022-12-18T00:09:28;7.55;;;4.32;;
74415;SDS011;62850;42.428;25.618;2022-12-18T00:11:54;9.77;;;4.38;;
74415;SDS011;62850;42.428;25.618;2022-12-18T00:14:19;7.22;;;4.13;;
74415;SDS011;62850;42.428;25.618;2022-12-18T00:16:45;9.40;;;4.35;;
74415;SDS011;62850;42.428;25.618;2022-12-18T00:19:11;10.77;;;4.65;;
74415;SDS011;62850;42.428;25.618;2022-12-18T00:21:37;8.20;;;4.68;;
74415;SDS011;62850;42.428;25.618;2022-12-18T00:24:03;10.65;;;5.20;;
74415;SDS011;62850;42.428;25.618;2022-12-18T00:26:30;8.10;;;4.55;;
74415;SDS011;62850;42.428;25.618;2022-12-18T00:29:00;11.30;;;5.20;;
74415;SDS011;62850;42.428;25.618;2022-12-18T00:31:28;7.95;;;4.50;;
74415;SDS011;62850;42.428;25.618;2022-12-18T00:33:54;11.20;;;4.88;;
74415;SDS011;62850;42.428;25.618;2022-12-18T00:36:24;10.18;;;4.95;;
74415;SDS011;62850;42.428;25.618;2022-12-18T00:38:55;11.48;;;6.07;;
74415;SDS011;62850;42.428;25.618;2022-12-18T00:41:22;8.98;;;4.97;;
74415;SDS011;62850;42.428;25.618;2022-12-18T00:44:07;11.90;;;5.22;;
74415;SDS011;62850;42.428;25.618;2022-12-18T00:46:34;11.77;;;6.35;;
74415;SDS011;62850;42.428;25.618;2022-12-18T00:49:00;11.00;;;6.50;;
74415;SDS011;62850;42.428;25.618;2022-12-18T00:51:26;11.52;;;5.82;;
74415;SDS011;62850;42.428;25.618;2022-12-18T00:53:52;11.43;;;6.28;;
74415;SDS011;62850;42.428;25.618;2022-12-18T00:56:18;15.20;;;6.47;;
74415;SDS011;62850;42.428;25.618;2022-12-18T00:58:46;12.05;;;5.95;;
74415;SDS011;62850;42.428;25.618;2022-12-18T01:01:12;11.88;;;6.63;;
74415;SDS011;62850;42.428;25.618;2022-12-18T01:03:37;9.48;;;4.88;;
74415;SDS011;62850;42.428;25.618;2022-12-18T01:06:06;9.35;;;4.70;;
74415;SDS011;62850;42.428;25.618;2022-12-18T01:08:33;9.20;;;4.93;;
74415;SDS011;62850;42.428;25.618;2022-12-18T01:10:59;11.05;;;4.47;;
74415;SDS011;62850;42.428;25.618;2022-12-18T01:13:25;7.78;;;4.50;;
74415;SDS011;62850;42.428;25.618;2022-12-18T01:15:51;14.55;;;4.40;;
74415;SDS011;62850;42.428;25.618;2022-12-18T01:18:17;9.45;;;4.95;;
74415;SDS011;62850;42.428;25.618;2022-12-18T01:20:42;9.77;;;4.60;;
74415;SDS011;62850;42.428;25.618;2022-12-18T01:23:08;9.27;;;4.32;;
74415;SDS011;62850;42.428;25.618;2022-12-18T01:25:35;9.88;;;5.30;;
74415;SDS011;62850;42.428;25.618;2022-12-18T01:28:01;7.13;;;4.47;;
74415;SDS011;62850;42.428;25.618;2022-12-18T01:30:27;8.85;;;4.68;;
74415;SDS011;62850;42.428;25.618;2022-12-18T01:32:53;9.07;;;3.88;;
74415;SDS011;62850;42.428;25.618;2022-12-18T01:35:18;10.18;;;4.88;;
74415;SDS011;62850;42.428;25.618;2022-12-18T01:37:44;7.90;;;4.78;;
74415;SDS011;62850;42.428;25.618;2022-12-18T01:40:09;8.48;;;4.15;;
74415;SDS011;62850;42.428;25.618;2022-12-18T01:42:35;7.10;;;3.85;;
74415;SDS011;62850;42.428;25.618;2022-12-18T01:47:42;7.47;;;3.47;;
74415;SDS011;62850;42.428;25.618;2022-12-18T01:53:02;6.25;;;3.83;;
74415;SDS011;62850;42.428;25.618;2022-12-18T01:55:32;11.38;;;3.65;;
74415;SDS011;62850;42.428;25.618;2022-12-18T01:58:04;6.88;;;3.83;;
74415;SDS011;62850;42.428;25.618;2022-12-18T02:00:30;8.05;;;4.00;;
74415;SDS011;62850;42.428;25.618;2022-12-18T02:02:56;11.90;;;5.82;;
74415;SDS011;62850;42.428;25.618;2022-12-18T02:06:09;11.82;;;7.35;;
74415;SDS011;62850;42.428;25.618;2022-12-18T02:08:13;13.05;;;7.68;;
74415;SDS011;62850;42.428;25.618;2022-12-18T02:10:46;13.95;;;7.63;;
74415;SDS011;62850;42.428;25.618;2022-12-18T02:13:36;13.82;;;6.88;;
74415;SDS011;62850;42.428;25.618;2022-12-18T02:16:29;11.77;;;6.72;;
74415;SDS011;62850;42.428;25.618;2022-12-18T02:22:07;10.35;;;5.40;;
74415;SDS011;62850;42.428;25.618;2022-12-18T02:27:51;10.52;;;5.70;;
74415;SDS011;62850;42.428;25.618;2022-12-18T02:30:18;9.77;;;5.93;;
74415;SDS011;62850;42.428;25.618;2022-12-18T02:32:46;10.95;;;5.72;;
74415;SDS011;62850;42.428;25.618;2022-12-18T02:35:20;12.80;;;6.18;;
74415;SDS011;62850;42.428;25.618;2022-12-18T02:37:48;10.60;;;5.65;;
74415;SDS011;62850;42.428;25.618;2022-12-18T02:40:20;12.05;;;5.80;;
74415;SDS011;62850;42.428;25.618;2022-12-18T02:42:48;12.52;;;6.50;;
74415;SDS011;62850;42.428;25.618;2022-12-18T02:45:14;13.07;;;7.60;;
74415;SDS011;62850;42.428;25.618;2022-12-18T02:47:41;18.00;;;8.88;;
74415;SDS011;62850;42.428;25.618;2022-12-18T02:50:44;16.88;;;8.93;;
74415;SDS011;62850;42.428;25.618;2022-12-18T02:56:33;16.30;;;8.65;;
74415;SDS011;62850;42.428;25.618;2022-12-18T03:06:26;10.43;;;5.90;;
74415;SDS011;62850;42.428;25.618;2022-12-18T03:09:09;11.10;;;5.68;;
74415;SDS011;62850;42.428;25.618;2022-12-18T03:11:40;8.88;;;4.45;;
74415;SDS011;62850;42.428;25.618;2022-12-18T03:14:29;8.27;;;4.38;;
74415;SDS011;62850;42.428;25.618;2022-12-18T03:16:57;12.40;;;7.25;;
74415;SDS011;62850;42.428;25.618;2022-12-18T03:19:29;14.20;;;7.10;;
74415;SDS011;62850;42.428;25.618;2022-12-18T03:21:57;12.57;;;6.75;;
74415;SDS011;62850;42.428;25.618;2022-12-18T03:24:28;11.25;;;6.22;;
74415;SDS011;62850;42.428;25.618;2022-12-18T03:27:01;11.85;;;6.47;;
74415;SDS011;62850;42.428;25.618;2022-12-18T03:32:06;11.02;;;5.43;;
74415;SDS011;62850;42.428;25.618;2022-12-18T03:34:37;10.35;;;5.72;;
74415;SDS011;62850;42.428;25.618;2022-12-18T03:37:05;9.77;;;4.47;;
74415;SDS011;62850;42.428;25.618;2022-12-18T03:39:31;8.13;;;3.88;;
74415;SDS011;62850;42.428;25.618;2022-12-18T03:42:25;8.13;;;4.90;;
74415;SDS011;62850;42.428;25.618;2022-12-18T03:44:55;8.55;;;3.90;;
74415;SDS011;62850;42.428;25.618;2022-12-18T03:47:51;7.15;;;4.10;;
74415;SDS011;62850;42.428;25.618;2022-12-18T03:50:22;8.32;;;4.07;;
74415;SDS011;62850;42.428;25.618;2022-12-18T03:55:47;6.97;;;3.47;;
74415;SDS011;62850;42.428;25.618;2022-12-18T03:58:16;7.65;;;3.55;;
74415;SDS011;62850;42.428;25.618;2022-12-18T04:03:13;8.30;;;4.35;;
74415;SDS011;62850;42.428;25.618;2022-12-18T04:05:39;6.47;;;3.75;;
74415;SDS011;62850;42.428;25.618;2022-12-18T04:08:07;5.55;;;3.08;;
74415;SDS011;62850;42.428;25.618;2022-12-18T04:10:36;7.40;;;3.70;;
74415;SDS011;62850;42.428;25.618;2022-12-18T04:13:02;6.80;;;3.53;;
74415;SDS011;62850;42.428;25.618;2022-12-18T04:15:27;8.55;;;3.90;;
74415;SDS011;62850;42.428;25.618;2022-12-18T04:17:53;5.85;;;3.13;;
74415;SDS011;62850;42.428;25.618;2022-12-18T04:20:18;6.57;;;3.50;;
74415;SDS011;62850;42.428;25.618;2022-12-18T04:22:44;9.65;;;3.92;;
74415;SDS011;62850;42.428;25.618;2022-12-18T04:25:09;7.47;;;3.55;;
74415;SDS011;62850;42.428;25.618;2022-12-18T04:27:35;6.93;;;3.65;;
74415;SDS011;62850;42.428;25.618;2022-12-18T04:30:01;9.32;;;4.10;;
74415;SDS011;62850;42.428;25.618;2022-12-18T04:32:26;10.48;;;4.35;;
74415;SDS011;62850;42.428;25.618;2022-12-18T04:34:52;7.75;;;4.13;;
74415;SDS011;62850;42.428;25.618;2022-12-18T04:37:17;7.60;;;3.85;;
74415;SDS011;62850;42.428;25.618;2022-12-18T04:39:43;7.15;;;4.25;;
74415;SDS011;62850;42.428;25.618;2022-12-18T04:42:08;8.45;;;5.00;;
74415;SDS011;62850;42.428;25.618;2022-12-18T04:44:34;8.02;;;4.55;;
74415;SDS011;62850;42.428;25.618;2022-12-18T04:46:59;9.35;;;5.03;;
74415;SDS011;62850;42.428;25.618;2022-12-18T04:49:25;8.32;;;4.82;;
74415;SDS011;62850;42.428;25.618;2022-12-18T04:51:51;6.18;;;3.70;;
74415;SDS011;62850;42.428;25.618;2022-12-18T04:54:19;7.82;;;3.83;;
74415;SDS011;62850;42.428;25.618;2022-12-18T04:56:45;6.88;;;3.90;;
74415;SDS011;62850;42.428;25.618;2022-12-18T04:59:11;7.75;;;3.35;;
74415;SDS011;62850;42.428;25.618;2022-12-18T05:01:36;7.05;;;3.88;;
74415;SDS011;62850;42.428;25.618;2022-12-18T05:04:02;8.52;;;4.10;;
74415;SDS011;62850;42.428;25.618;2022-12-18T05:06:28;6.85;;;3.75;;
74415;SDS011;62850;42.428;25.618;2022-12-18T05:08:53;11.20;;;3.90;;
74415;SDS011;62850;42.428;25.618;2022-12-18T05:11:19;7.05;;;3.47;;
74415;SDS011;62850;42.428;25.618;2022-12-18T05:13:44;6.10;;;3.33;;
74415;SDS011;62850;42.428;25.618;2022-12-18T05:16:10;8.18;;;3.35;;
74415;SDS011;62850;42.428;25.618;2022-12-18T05:18:37;6.22;;;3.30;;
74415;SDS011;62850;42.428;25.618;2022-12-18T05:21:03;7.50;;;3.50;;
74415;SDS011;62850;42.428;25.618;2022-12-18T05:23:29;6.57;;;3.38;;
74415;SDS011;62850;42.428;25.618;2022-12-18T05:26:03;7.05;;;3.30;;
74415;SDS011;62850;42.428;25.618;2022-12-18T05:28:30;5.55;;;3.13;;
74415;SDS011;62850;42.428;25.618;2022-12-18T05:30:58;6.60;;;2.92;;
74415;SDS011;62850;42.428;25.618;2022-12-18T05:33:26;5.25;;;2.50;;
74415;SDS011;62850;42.428;25.618;2022-12-18T05:35:54;6.03;;;2.88;;
74415;SDS011;62850;42.428;25.618;2022-12-18T05:38:27;5.32;;;2.42;;
74415;SDS011;62850;42.428;25.618;2022-12-18T05:40:54;4.80;;;2.47;;
74415;SDS011;62850;42.428;25.618;2022-12-18T05:43:19;4.80;;;2.10;;
74415;SDS011;62850;42.428;25.618;2022-12-18T05:45:47;5.82;;;2.35;;
74415;SDS011;62850;42.428;25.618;2022-12-18T05:48:13;4.78;;;2.28;;
74415;SDS011;62850;42.428;25.618;2022-12-18T05:50:40;4.38;;;2.42;;
74415;SDS011;62850;42.428;25.618;2022-12-18T05:53:08;4.82;;;2.47;;
74415;SDS011;62850;42.428;25.618;2022-12-18T05:55:34;6.38;;;2.47;;
74415;SDS011;62850;42.428;25.618;2022-12-18T05:58:01;4.40;;;2.30;;
74415;SDS011;62850;42.428;25.618;2022-12-18T06:00:27;5.35;;;2.50;;
74415;SDS011;62850;42.428;25.618;2022-12-18T06:02:52;5.65;;;2.65;;
74415;SDS011;62850;42.428;25.618;2022-12-18T06:05:18;5.18;;;2.50;;
74415;SDS011;62850;42.428;25.618;2022-12-18T06:07:43;4.13;;;2.15;;
74415;SDS011;62850;42.428;25.618;2022-12-18T06:10:09;4.10;;;2.13;;
74415;SDS011;62850;42.428;25.618;2022-12-18T06:12:35;4.93;;;2.03;;
74415;SDS011;62850;42.428;25.618;2022-12-18T06:15:00;6.10;;;2.35;;
74415;SDS011;62850;42.428;25.618;2022-12-18T06:17:30;5.68;;;2.58;;
74415;SDS011;62850;42.428;25.618;2022-12-18T06:19:56;7.38;;;2.90;;
74415;SDS011;62850;42.428;25.618;2022-12-18T06:22:21;7.00;;;2.92;;
74415;SDS011;62850;42.428;25.618;2022-12-18T06:24:47;7.50;;;3.03;;
74415;SDS011;62850;42.428;25.618;2022-12-18T06:27:13;5.07;;;2.13;;
74415;SDS011;62850;42.428;25.618;2022-12-18T06:29:38;5.03;;;2.63;;
74415;SDS011;62850;42.428;25.618;2022-12-18T06:32:04;6.32;;;2.78;;
74415;SDS011;62850;42.428;25.618;2022-12-18T06:34:29;7.68;;;2.97;;
74415;SDS011;62850;42.428;25.618;2022-12-18T06:36:55;4.85;;;2.47;;
74415;SDS011;62850;42.428;25.618;2022-12-18T06:39:20;5.25;;;2.50;;
74415;SDS011;62850;42.428;25.618;2022-12-18T06:41:46;6.05;;;2.60;;
74415;SDS011;62850;42.428;25.618;2022-12-18T06:44:11;5.07;;;2.72;;
74415;SDS011;62850;42.428;25.618;2022-12-18T06:46:37;6.13;;;2.70;;
74415;SDS011;62850;42.428;25.618;2022-12-18T06:49:03;5.90;;;2.45;;
74415;SDS011;62850;42.428;25.618;2022-12-18T06:51:29;5.80;;;2.35;;
74415;SDS011;62850;42.428;25.618;2022-12-18T06:53:54;5.40;;;2.58;;
74415;SDS011;62850;42.428;25.618;2022-12-18T06:56:20;7.07;;;2.40;;
74415;SDS011;62850;42.428;25.618;2022-12-18T06:58:45;5.55;;;2.40;;
74415;SDS011;62850;42.428;25.618;2022-12-18T07:01:12;4.50;;;2.25;;
74415;SDS011;62850;42.428;25.618;2022-12-18T07:03:38;7.95;;;2.40;;
74415;SDS011;62850;42.428;25.618;2022-12-18T07:06:05;5.22;;;2.40;;
74415;SDS011;62850;42.428;25.618;2022-12-18T07:08:31;5.15;;;2.28;;
74415;SDS011;62850;42.428;25.618;2022-12-18T07:10:57;6.25;;;2.25;;
74415;SDS011;62850;42.428;25.618;2022-12-18T07:13:22;9.13;;;2.55;;
74415;SDS011;62850;42.428;25.618;2022-12-18T07:15:48;5.95;;;2.50;;
74415;SDS011;62850;42.428;25.618;2022-12-18T07:18:13;4.75;;;2.22;;
74415;SDS011;62850;42.428;25.618;2022-12-18T07:20:39;4.85;;;2.22;;
74415;SDS011;62850;42.428;25.618;2022-12-18T07:23:04;6.80;;;2.78;;
74415;SDS011;62850;42.428;25.618;2022-12-18T07:25:33;8.40;;;2.75;;
74415;SDS011;62850;42.428;25.618;2022-12-18T07:28:02;5.50;;;2.33;;
74415;SDS011;62850;42.428;25.618;2022-12-18T07:30:28;8.38;;;2.40;;
74415;SDS011;62850;42.428;25.618;2022-12-18T07:32:54;6.40;;;2.83;;
74415;SDS011;62850;42.428;25.618;2022-12-18T07:35:19;6.68;;;2.47;;
74415;SDS011;62850;42.428;25.618;2022-12-18T07:37:45;4.93;;;2.20;;
74415;SDS011;62850;42.428;25.618;2022-12-18T07:40:10;7.70;;;2.80;;
74415;SDS011;62850;42.428;25.618;2022-12-18T07:42:36;6.05;;;2.80;;
74415;SDS011;62850;42.428;25.618;2022-12-18T07:45:02;6.43;;;3.15;;
74415;SDS011;62850;42.428;25.618;2022-12-18T07:47:28;7.28;;;3.05;;
74415;SDS011;62850;42.428;25.618;2022-12-18T07:49:54;5.10;;;2.53;;
74415;SDS011;62850;42.428;25.618;2022-12-18T07:52:20;6.68;;;2.60;;
74415;SDS011;62850;42.428;25.618;2022-12-18T07:54:46;4.85;;;2.17;;
74415;SDS011;62850;42.428;25.618;2022-12-18T07:57:13;6.25;;;2.63;;
74415;SDS011;62850;42.428;25.618;2022-12-18T07:59:39;4.53;;;2.38;;
74415;SDS011;62850;42.428;25.618;2022-12-18T08:02:05;5.05;;;2.65;;
74415;SDS011;62850;42.428;25.618;2022-12-18T08:04:30;5.90;;;2.80;;
74415;SDS011;62850;42.428;25.618;2022-12-18T08:06:56;6.32;;;2.88;;
74415;SDS011;62850;42.428;25.618;2022-12-18T08:09:21;7.20;;;2.75;;
74415;SDS011;62850;42.428;25.618;2022-12-18T08:11:47;5.45;;;2.60;;
74415;SDS011;62850;42.428;25.618;2022-12-18T08:14:12;5.60;;;2.63;;
74415;SDS011;62850;42.428;25.618;2022-12-18T08:16:39;5.93;;;2.78;;
74415;SDS011;62850;42.428;25.618;2022-12-18T08:19:05;5.35;;;2.83;;
74415;SDS011;62850;42.428;25.618;2022-12-18T08:21:30;6.63;;;2.90;;
74415;SDS011;62850;42.428;25.618;2022-12-18T08:23:57;6.47;;;3.20;;
74415;SDS011;62850;42.428;25.618;2022-12-18T08:26:25;7.07;;;3.53;;
74415;SDS011;62850;42.428;25.618;2022-12-18T08:28:53;7.25;;;3.35;;
74415;SDS011;62850;42.428;25.618;2022-12-18T08:31:20;6.93;;;3.08;;
74415;SDS011;62850;42.428;25.618;2022-12-18T08:33:47;6.63;;;3.50;;
74415;SDS011;62850;42.428;25.618;2022-12-18T08:36:14;7.10;;;3.63;;
74415;SDS011;62850;42.428;25.618;2022-12-18T08:38:40;6.82;;;3.47;;
74415;SDS011;62850;42.428;25.618;2022-12-18T08:41:06;10.07;;;3.60;;
74415;SDS011;62850;42.428;25.618;2022-12-18T08:43:36;7.18;;;3.97;;
74415;SDS011;62850;42.428;25.618;2022-12-18T08:46:20;5.75;;;3.30;;
74415;SDS011;62850;42.428;25.618;2022-12-18T08:48:47;7.90;;;3.40;;
74415;SDS011;62850;42.428;25.618;2022-12-18T08:51:18;7.53;;;3.60;;
74415;SDS011;62850;42.428;25.618;2022-12-18T08:53:44;7.32;;;3.60;;
74415;SDS011;62850;42.428;25.618;2022-12-18T08:56:10;8.55;;;3.30;;
74415;SDS011;62850;42.428;25.618;2022-12-18T08:58:36;9.73;;;3.30;;
74415;SDS011;62850;42.428;25.618;2022-12-18T09:01:02;6.20;;;3.25;;
74415;SDS011;62850;42.428;25.618;2022-12-18T09:03:30;8.85;;;3.40;;
74415;SDS011;62850;42.428;25.618;2022-12-18T09:05:55;7.15;;;3.58;;
74415;SDS011;62850;42.428;25.618;2022-12-18T09:08:21;8.82;;;4.13;;
74415;SDS011;62850;42.428;25.618;2022-12-18T09:10:47;8.32;;;4.15;;
74415;SDS011;62850;42.428;25.618;2022-12-18T09:13:14;8.43;;;4.28;;
74415;SDS011;62850;42.428;25.618;2022-12-18T09:15:41;9.52;;;4.53;;
74415;SDS011;62850;42.428;25.618;2022-12-18T09:18:08;8.57;;;4.45;;
74415;SDS011;62850;42.428;25.618;2022-12-18T09:20:34;8.45;;;4.35;;
74415;SDS011;62850;42.428;25.618;2022-12-18T09:23:01;8.25;;;4.25;;
74415;SDS011;62850;42.428;25.618;2022-12-18T09:25:28;9.35;;;4.85;;
74415;SDS011;62850;42.428;25.618;2022-12-18T09:27:57;10.43;;;4.40;;
74415;SDS011;62850;42.428;25.618;2022-12-18T09:30:27;8.68;;;4.32;;
74415;SDS011;62850;42.428;25.618;2022-12-18T09:32:52;11.65;;;5.15;;
74415;SDS011;62850;42.428;25.618;2022-12-18T09:35:18;10.48;;;5.05;;
74415;SDS011;62850;42.428;25.618;2022-12-18T09:37:43;9.80;;;4.78;;
74415;SDS011;62850;42.428;25.618;2022-12-18T09:40:13;10.30;;;4.65;;
74415;SDS011;62850;42.428;25.618;2022-12-18T09:42:40;9.18;;;5.25;;
74415;SDS011;62850;42.428;25.618;2022-12-18T09:45:07;10.38;;;5.57;;
74415;SDS011;62850;42.428;25.618;2022-12-18T09:47:39;9.60;;;4.55;;
74415;SDS011;62850;42.428;25.618;2022-12-18T09:50:18;9.20;;;4.75;;
74415;SDS011;62850;42.428;25.618;2022-12-18T09:52:59;11.48;;;5.80;;
74415;SDS011;62850;42.428;25.618;2022-12-18T09:58:16;10.40;;;5.32;;
74415;SDS011;62850;42.428;25.618;2022-12-18T10:00:45;11.90;;;5.32;;
74415;SDS011;62850;42.428;25.618;2022-12-18T10:03:12;13.35;;;5.70;;
74415;SDS011;62850;42.428;25.618;2022-12-18T10:11:25;11.55;;;5.18;;
74415;SDS011;62850;42.428;25.618;2022-12-18T10:22:10;9.52;;;5.00;;
74415;SDS011;62850;42.428;25.618;2022-12-18T10:27:21;10.77;;;5.28;;
74415;SDS011;62850;42.428;25.618;2022-12-18T10:29:49;9.82;;;5.25;;
74415;SDS011;62850;42.428;25.618;2022-12-18T10:32:15;10.68;;;5.63;;
74415;SDS011;62850;42.428;25.618;2022-12-18T10:34:47;10.48;;;5.25;;
74415;SDS011;62850;42.428;25.618;2022-12-18T10:37:18;10.63;;;5.40;;
74415;SDS011;62850;42.428;25.618;2022-12-18T10:39:46;8.45;;;4.50;;
74415;SDS011;62850;42.428;25.618;2022-12-18T10:42:32;9.05;;;4.60;;
74415;SDS011;62850;42.428;25.618;2022-12-18T10:45:02;10.05;;;4.63;;
74415;SDS011;62850;42.428;25.618;2022-12-18T10:47:31;11.27;;;5.18;;
74415;SDS011;62850;42.428;25.618;2022-12-18T10:49:59;8.80;;;4.68;;
74415;SDS011;62850;42.428;25.618;2022-12-18T10:52:25;8.75;;;4.55;;
74415;SDS011;62850;42.428;25.618;2022-12-18T10:54:57;10.68;;;5.15;;
74415;SDS011;62850;42.428;25.618;2022-12-18T10:57:36;11.13;;;5.03;;
74415;SDS011;62850;42.428;25.618;2022-12-18T11:02:49;16.50;;;8.35;;
74415;SDS011;62850;42.428;25.618;2022-12-18T11:05:34;13.77;;;6.65;;
74415;SDS011;62850;42.428;25.618;2022-12-18T11:08:02;10.27;;;5.38;;
74415;SDS011;62850;42.428;25.618;2022-12-18T11:10:30;10.73;;;4.82;;
74415;SDS011;62850;42.428;25.618;2022-12-18T11:13:20;9.63;;;4.80;;
74415;SDS011;62850;42.428;25.618;2022-12-18T11:15:45;8.50;;;4.53;;
74415;SDS011;62850;42.428;25.618;2022-12-18T11:18:18;11.48;;;5.32;;
74415;SDS011;62850;42.428;25.618;2022-12-18T11:20:50;11.43;;;5.43;;
74415;SDS011;62850;42.428;25.618;2022-12-18T11:23:18;10.07;;;4.88;;
74415;SDS011;62850;42.428;25.618;2022-12-18T11:25:53;12.13;;;6.05;;
74415;SDS011;62850;42.428;25.618;2022-12-18T11:31:55;11.75;;;6.80;;
74415;SDS011;62850;42.428;25.618;2022-12-18T11:36:29;10.15;;;5.25;;
74415;SDS011;62850;42.428;25.618;2022-12-18T11:39:00;9.02;;;5.05;;
74415;SDS011;62850;42.428;25.618;2022-12-18T11:41:37;9.68;;;5.13;;
74415;SDS011;62850;42.428;25.618;2022-12-18T11:44:31;10.38;;;4.43;;
74415;SDS011;62850;42.428;25.618;2022-12-18T11:47:23;9.95;;;5.57;;
74415;SDS011;62850;42.428;25.618;2022-12-18T11:49:52;10.70;;;4.78;;
74415;SDS011;62850;42.428;25.618;2022-12-18T11:54:50;11.95;;;5.30;;
74415;SDS011;62850;42.428;25.618;2022-12-18T11:57:27;11.10;;;5.75;;
74415;SDS011;62850;42.428;25.618;2022-12-18T12:17:03;12.20;;;5.55;;
74415;SDS011;62850;42.428;25.618;2022-12-18T12:19:38;11.20;;;5.30;;
74415;SDS011;62850;42.428;25.618;2022-12-18T12:25:29;11.77;;;5.45;;
74415;SDS011;62850;42.428;25.618;2022-12-18T12:28:14;11.52;;;5.65;;
74415;SDS011;62850;42.428;25.618;2022-12-18T12:31:14;12.10;;;6.30;;
74415;SDS011;62850;42.428;25.618;2022-12-18T12:36:26;13.75;;;7.40;;
74415;SDS011;62850;42.428;25.618;2022-12-18T12:39:10;12.38;;;6.82;;
74415;SDS011;62850;42.428;25.618;2022-12-18T12:41:41;11.57;;;6.45;;
74415;SDS011;62850;42.428;25.618;2022-12-18T12:44:32;14.27;;;7.15;;
74415;SDS011;62850;42.428;25.618;2022-12-18T12:47:10;13.43;;;7.43;;
74415;SDS011;62850;42.428;25.618;2022-12-18T12:49:50;12.07;;;6.38;;
74415;SDS011;62850;42.428;25.618;2022-12-18T12:52:33;12.35;;;6.53;;
74415;SDS011;62850;42.428;25.618;2022-12-18T12:55:03;12.50;;;6.82;;
74415;SDS011;62850;42.428;25.618;2022-12-18T12:57:35;12.20;;;6.30;;
74415;SDS011;62850;42.428;25.618;2022-12-18T13:00:07;11.55;;;5.88;;
74415;SDS011;62850;42.428;25.618;2022-12-18T13:20:36;11.60;;;5.25;;
74415;SDS011;62850;42.428;25.618;2022-12-18T13:36:47;17.40;;;7.50;;
74415;SDS011;62850;42.428;25.618;2022-12-18T13:41:39;12.98;;;5.50;;
74415;SDS011;62850;42.428;25.618;2022-12-18T13:46:47;10.05;;;5.75;;
74415;SDS011;62850;42.428;25.618;2022-12-18T13:51:48;12.07;;;6.45;;
74415;SDS011;62850;42.428;25.618;2022-12-18T13:56:57;13.05;;;6.03;;
74415;SDS011;62850;42.428;25.618;2022-12-18T13:59:32;11.70;;;5.82;;
74415;SDS011;62850;42.428;25.618;2022-12-18T14:02:23;13.13;;;6.45;;
74415;SDS011;62850;42.428;25.618;2022-12-18T14:04:49;14.15;;;6.60;;
74415;SDS011;62850;42.428;25.618;2022-12-18T14:07:16;11.38;;;5.95;;
74415;SDS011;62850;42.428;25.618;2022-12-18T14:09:54;12.07;;;5.70;;
74415;SDS011;62850;42.428;25.618;2022-12-18T14:12:26;13.23;;;6.15;;
74415;SDS011;62850;42.428;25.618;2022-12-18T14:17:58;13.27;;;5.90;;
74415;SDS011;62850;42.428;25.618;2022-12-18T14:20:31;13.27;;;6.50;;
74415;SDS011;62850;42.428;25.618;2022-12-18T14:22:57;12.50;;;6.25;;
74415;SDS011;62850;42.428;25.618;2022-12-18T14:25:27;13.88;;;6.65;;
74415;SDS011;62850;42.428;25.618;2022-12-18T14:30:35;12.90;;;6.75;;
74415;SDS011;62850;42.428;25.618;2022-12-18T14:38:33;19.60;;;8.93;;
74415;SDS011;62850;42.428;25.618;2022-12-18T14:43:39;16.73;;;8.55;;
74415;SDS011;62850;42.428;25.618;2022-12-18T14:51:54;17.52;;;8.93;;
74415;SDS011;62850;42.428;25.618;2022-12-18T14:54:21;15.90;;;8.20;;
74415;SDS011;62850;42.428;25.618;2022-12-18T14:56:49;16.45;;;8.02;;
74415;SDS011;62850;42.428;25.618;2022-12-18T14:59:24;16.73;;;8.70;;
74415;SDS011;62850;42.428;25.618;2022-12-18T15:01:58;21.55;;;10.02;;
74415;SDS011;62850;42.428;25.618;2022-12-18T15:04:36;18.75;;;8.77;;
74415;SDS011;62850;42.428;25.618;2022-12-18T15:07:14;20.55;;;9.63;;
74415;SDS011;62850;42.428;25.618;2022-12-18T15:15:52;23.98;;;10.73;;
74415;SDS011;62850;42.428;25.618;2022-12-18T15:17:58;25.48;;;11.55;;
74415;SDS011;62850;42.428;25.618;2022-12-18T15:20:40;25.58;;;12.55;;
74415;SDS011;62850;42.428;25.618;2022-12-18T15:28:23;23.63;;;11.88;;
74415;SDS011;62850;42.428;25.618;2022-12-18T15:33:38;23.30;;;11.68;;
74415;SDS011;62850;42.428;25.618;2022-12-18T15:36:09;22.85;;;10.63;;
74415;SDS011;62850;42.428;25.618;2022-12-18T15:41:02;23.80;;;11.60;;
74415;SDS011;62850;42.428;25.618;2022-12-18T15:43:27;20.80;;;10.00;;
74415;SDS011;62850;42.428;25.618;2022-12-18T15:46:02;22.17;;;11.18;;
74415;SDS011;62850;42.428;25.618;2022-12-18T15:48:35;20.83;;;10.73;;
74415;SDS011;62850;42.428;25.618;2022-12-18T15:51:09;24.05;;;11.40;;
74415;SDS011;62850;42.428;25.618;2022-12-18T15:53:39;20.88;;;11.02;;
74415;SDS011;62850;42.428;25.618;2022-12-18T15:56:09;25.10;;;12.10;;
74415;SDS011;62850;42.428;25.618;2022-12-18T15:58:54;22.75;;;10.88;;
74415;SDS011;62850;42.428;25.618;2022-12-18T16:01:20;23.90;;;11.80;;
74415;SDS011;62850;42.428;25.618;2022-12-18T16:03:46;24.05;;;11.63;;
74415;SDS011;62850;42.428;25.618;2022-12-18T16:06:11;25.48;;;11.55;;
74415;SDS011;62850;42.428;25.618;2022-12-18T16:08:37;26.02;;;12.45;;
74415;SDS011;62850;42.428;25.618;2022-12-18T16:11:03;28.05;;;13.55;;
74415;SDS011;62850;42.428;25.618;2022-12-18T16:13:28;29.17;;;13.23;;
74415;SDS011;62850;42.428;25.618;2022-12-18T16:15:54;31.90;;;13.80;;
74415;SDS011;62850;42.428;25.618;2022-12-18T16:18:20;26.70;;;12.68;;
74415;SDS011;62850;42.428;25.618;2022-12-18T16:20:48;21.15;;;10.50;;
74415;SDS011;62850;42.428;25.618;2022-12-18T16:23:14;22.67;;;10.98;;
74415;SDS011;62850;42.428;25.618;2022-12-18T16:25:39;24.98;;;10.95;;
74415;SDS011;62850;42.428;25.618;2022-12-18T16:28:06;26.90;;;11.88;;
74415;SDS011;62850;42.428;25.618;2022-12-18T16:30:32;24.58;;;11.70;;
74415;SDS011;62850;42.428;25.618;2022-12-18T16:32:58;23.50;;;10.98;;
74415;SDS011;62850;42.428;25.618;2022-12-18T16:35:24;23.00;;;10.35;;
74415;SDS011;62850;42.428;25.618;2022-12-18T16:37:50;21.83;;;10.68;;
74415;SDS011;62850;42.428;25.618;2022-12-18T16:40:16;22.20;;;10.95;;
74415;SDS011;62850;42.428;25.618;2022-12-18T16:42:43;26.35;;;11.43;;
74415;SDS011;62850;42.428;25.618;2022-12-18T16:45:14;25.20;;;11.77;;
74415;SDS011;62850;42.428;25.618;2022-12-18T16:47:42;24.98;;;11.80;;
74415;SDS011;62850;42.428;25.618;2022-12-18T16:50:07;25.20;;;11.85;;
74415;SDS011;62850;42.428;25.618;2022-12-18T16:52:34;26.77;;;12.10;;
74415;SDS011;62850;42.428;25.618;2022-12-18T16:55:00;26.70;;;11.43;;
74415;SDS011;62850;42.428;25.618;2022-12-18T16:57:26;27.17;;;11.73;;
74415;SDS011;62850;42.428;25.618;2022-12-18T16:59:53;26.15;;;12.32;;
74415;SDS011;62850;42.428;25.618;2022-12-18T17:02:22;24.33;;;11.75;;
74415;SDS011;62850;42.428;25.618;2022-12-18T17:04:54;24.02;;;11.82;;
74415;SDS011;62850;42.428;25.618;2022-12-18T17:07:21;27.73;;;12.45;;
74415;SDS011;62850;42.428;25.618;2022-12-18T17:09:47;24.85;;;11.70;;
74415;SDS011;62850;42.428;25.618;2022-12-18T17:12:15;25.58;;;11.45;;
74415;SDS011;62850;42.428;25.618;2022-12-18T17:14:41;25.35;;;11.40;;
74415;SDS011;62850;42.428;25.618;2022-12-18T17:17:06;26.20;;;11.68;;
74415;SDS011;62850;42.428;25.618;2022-12-18T17:19:35;25.92;;;13.00;;